Time;durP1;ratioP1;P1;durP2;ratioP2;P2;SDS_P1;SDS_P2;PMS_P1;PMS_P2;Temp;Humidity;BMP_temperature;BMP_pressure;BME280_temperature;BME280_humidity;BME280_pressure;Samples;Min_cycle;Max_cycle;Signal;HPM_P1;HPM_P2
2023/12/27 00:00:24;;;;;;;;;;;;;;;8.76;81.60;100006.09;7360721;19;19941;-64
2023/12/27 00:02:49;;;;;;;;;;;;;;;8.77;81.58;99999.16;7356218;19;19919;-64
2023/12/27 00:05:15;;;;;;;;;;;;;;;8.79;81.93;99993.00;7359256;19;20022;-64
2023/12/27 00:07:40;;;;;;;;;;;;;;;8.80;81.57;99978.22;7349429;19;19952;-64
2023/12/27 00:10:05;;;;;;;;;;;;;;;8.82;81.93;99966.06;7354325;19;19957;-64
2023/12/27 00:12:31;;;;;;;;;;;;;;;8.82;81.49;99972.09;7353160;19;19930;-63
2023/12/27 00:14:56;;;;;;;;;;;;;;;8.82;81.75;99946.06;7359446;19;20347;-64
2023/12/27 00:17:21;;;;;;;;;;;;;;;8.83;81.76;99955.59;7358411;19;19933;-64
2023/12/27 00:19:46;;;;;;;;;;;;;;;8.84;81.57;99938.22;7363255;19;19996;-64
2023/12/27 00:22:14;;;;;;;;;;;;;;;8.84;81.53;99935.59;7358374;19;19926;-64
2023/12/27 00:24:39;;;;;;;;;;;;;;;8.86;81.65;99920.78;7358335;19;20636;-64
2023/12/27 00:27:04;;;;;;;;;;;;;;;8.86;81.72;99923.38;7357757;19;20021;-64
2023/12/27 00:29:30;;;;;;;;;;;;;;;8.87;81.81;99906.91;7357851;19;20351;-64
2023/12/27 00:31:55;;;;;;;;;;;;;;;8.88;81.49;99887.75;7355382;19;20541;-64
2023/12/27 00:34:21;;;;;;;;;;;;;;;8.87;81.97;99875.66;7357720;19;19923;-64
2023/12/27 00:36:46;;;;;;;;;;;;;;;8.89;81.88;99880.81;7355681;19;19922;-64
2023/12/27 00:39:11;;;;;;;;;;;;;;;8.90;81.97;99864.28;7357704;19;19950;-63
2023/12/27 00:41:36;;;;;;;;;;;;;;;8.90;81.62;99862.53;7357195;19;20614;-64
2023/12/27 00:44:02;;;;;;;;;;;;;;;8.91;82.02;99835.59;7354987;19;19915;-62
2023/12/27 00:46:27;;;;;;;;;;;;;;;8.92;81.70;99841.66;7360074;19;20005;-63
2023/12/27 00:48:52;;;;;;;;;;;;;;;8.92;82.01;99816.50;7357536;19;20527;-63
2023/12/27 00:51:21;;;;;;;;;;;;;;;8.94;81.86;99793.84;7363402;19;19919;-63
2023/12/27 00:53:46;;;;;;;;;;;;;;;8.95;82.04;99808.56;7364455;19;20623;-63
2023/12/27 00:56:12;;;;;;;;;;;;;;;8.96;82.16;99791.19;7358323;19;19950;-63
2023/12/27 00:58:37;;;;;;;;;;;;;;;8.98;82.22;99776.38;7356971;19;20247;-62
2023/12/27 01:01:02;;;;;;;;;;;;;;;9.00;82.25;99766.75;7358526;19;20262;-63
2023/12/27 01:03:27;;;;;;;;;;;;;;;8.91;82.28;99728.84;7355858;19;19914;-63
2023/12/27 01:05:53;;;;;;;;;;;;;;;9.04;82.28;99739.72;7357118;19;19923;-62
2023/12/27 01:08:18;;;;;;;;;;;;;;;9.05;81.95;99734.47;7353929;19;19919;-64
2023/12/27 01:10:44;;;;;;;;;;;;;;;9.07;82.24;99717.06;7360611;19;19926;-63
2023/12/27 01:13:09;;;;;;;;;;;;;;;9.10;82.39;99714.34;7356939;19;19982;-63
2023/12/27 01:15:34;;;;;;;;;;;;;;;9.13;82.43;99702.13;7364406;19;19993;-62
2023/12/27 01:17:59;;;;;;;;;;;;;;;9.14;82.29;99676.03;7360880;19;19923;-62
2023/12/27 01:20:25;;;;;;;;;;;;;;;9.17;82.03;99665.50;7352809;19;19919;-64
2023/12/27 01:22:50;;;;;;;;;;;;;;;9.20;82.34;99656.75;7359488;19;19956;-63
2023/12/27 01:25:15;;;;;;;;;;;;;;;9.21;82.09;99655.81;7361411;19;19935;-64
2023/12/27 01:27:40;;;;;;;;;;;;;;;9.23;82.04;99659.25;7356343;19;19927;-63
2023/12/27 01:30:06;;;;;;;;;;;;;;;9.26;82.54;99622.66;7355592;19;20025;-63
2023/12/27 01:32:32;;;;;;;;;;;;;;;9.28;82.33;99605.25;7358538;19;20360;-63
2023/12/27 01:34:57;;;;;;;;;;;;;;;9.30;82.29;99608.63;7357717;19;19939;-62
2023/12/27 01:37:23;;;;;;;;;;;;;;;9.31;82.10;99581.66;7364503;19;19923;-63
2023/12/27 01:39:48;;;;;;;;;;;;;;;9.33;82.34;99566.84;7356267;19;19926;-63
2023/12/27 01:42:14;;;;;;;;;;;;;;;9.35;82.08;99559.81;7360857;19;19930;-63
2023/12/27 01:44:39;;;;;;;;;;;;;;;9.37;82.27;99544.97;7357427;19;19950;-63
2023/12/27 01:47:05;;;;;;;;;;;;;;;9.40;82.22;99531.00;7348985;19;19934;-63
2023/12/27 01:49:30;;;;;;;;;;;;;;;9.43;82.54;99504.81;7355321;19;19923;-64
2023/12/27 01:51:55;;;;;;;;;;;;;;;9.45;82.39;99514.28;7358193;19;19986;-63
2023/12/27 01:54:21;;;;;;;;;;;;;;;9.48;82.51;99485.50;7354443;19;19919;-63
2023/12/27 01:56:46;;;;;;;;;;;;;;;9.53;82.52;99483.59;7362229;19;20631;-63
2023/12/27 01:59:12;;;;;;;;;;;;;;;9.57;82.66;99459.06;7349569;19;19914;-63
2023/12/27 02:01:38;;;;;;;;;;;;;;;9.60;82.40;99440.72;7355860;19;19933;-63
2023/12/27 02:04:03;;;;;;;;;;;;;;;9.66;82.59;99430.97;7362750;19;20443;-64
2023/12/27 02:06:28;;;;;;;;;;;;;;;9.71;82.53;99436.84;7367448;19;19951;-63
2023/12/27 02:08:54;;;;;;;;;;;;;;;9.74;82.51;99401.09;7352341;19;19932;-64
2023/12/27 02:11:19;;;;;;;;;;;;;;;9.79;82.63;99408.72;7361765;19;19918;-64
2023/12/27 02:13:44;;;;;;;;;;;;;;;9.85;82.60;99388.47;7359779;19;19974;-63
2023/12/27 02:16:10;;;;;;;;;;;;;;;9.92;82.86;99368.19;7357051;19;20347;-64
2023/12/27 02:18:35;;;;;;;;;;;;;;;9.97;83.05;99345.38;7353945;19;21082;-63
2023/12/27 02:21:01;;;;;;;;;;;;;;;10.03;83.25;99334.69;7351218;19;19926;-63
2023/12/27 02:23:27;;;;;;;;;;;;;;;10.11;83.17;99321.34;7345742;19;20330;-63
2023/12/27 02:25:54;;;;;;;;;;;;;;;10.17;82.89;99325.44;7355535;19;19936;-62
2023/12/27 02:28:19;;;;;;;;;;;;;;;10.26;82.96;99309.44;7360229;19;19919;-63
2023/12/27 02:30:45;;;;;;;;;;;;;;;10.33;83.41;99300.41;7355882;19;19926;-63
2023/12/27 02:33:10;;;;;;;;;;;;;;;10.40;83.09;99291.41;7354116;19;19911;-63
2023/12/27 02:35:35;;;;;;;;;;;;;;;10.47;83.25;99277.16;7356060;19;19914;-62
2023/12/27 02:38:01;;;;;;;;;;;;;;;10.53;83.29;99269.03;7365270;19;19919;-62
2023/12/27 02:40:26;;;;;;;;;;;;;;;10.60;82.92;99257.44;7362729;19;19915;-64
2023/12/27 02:42:51;;;;;;;;;;;;;;;10.68;83.11;99253.59;7363012;19;19907;-63
2023/12/27 02:45:16;;;;;;;;;;;;;;;10.73;82.83;99243.78;7365662;19;20383;-64
2023/12/27 02:47:42;;;;;;;;;;;;;;;10.79;82.98;99230.44;7363796;19;19914;-64
2023/12/27 02:50:07;;;;;;;;;;;;;;;10.84;83.08;99224.09;7361712;19;19932;-64
2023/12/27 02:52:32;;;;;;;;;;;;;;;10.88;82.93;99217.81;7362869;19;19932;-63
2023/12/27 02:54:58;;;;;;;;;;;;;;;10.94;82.64;99214.03;7361665;19;21018;-64
2023/12/27 02:57:23;;;;;;;;;;;;;;;10.99;82.99;99206.84;7365009;19;20405;-63
2023/12/27 02:59:48;;;;;;;;;;;;;;;11.03;82.86;99186.66;7359689;19;19914;-63
2023/12/27 03:02:13;;;;;;;;;;;;;;;11.06;82.95;99176.91;7367081;19;19926;-63
2023/12/27 03:04:39;;;;;;;;;;;;;;;11.10;82.52;99183.66;7365481;19;19915;-64
2023/12/27 03:07:04;;;;;;;;;;;;;;;11.15;82.73;99176.47;7362145;19;19929;-62
2023/12/27 03:09:29;;;;;;;;;;;;;;;11.20;82.39;99147.47;7365639;19;19928;-64
2023/12/27 03:11:56;;;;;;;;;;;;;;;11.24;82.44;99148.16;7367192;19;19918;-63
2023/12/27 03:14:21;;;;;;;;;;;;;;;11.27;82.42;99132.34;7345672;19;19926;-64
2023/12/27 03:16:46;;;;;;;;;;;;;;;11.31;82.40;99123.44;7366773;19;19923;-64
2023/12/27 03:19:11;;;;;;;;;;;;;;;11.34;82.79;99126.72;7363625;19;19923;-64
2023/12/27 03:21:37;;;;;;;;;;;;;;;11.38;82.49;99106.50;7359847;19;20929;-63
2023/12/27 03:24:02;;;;;;;;;;;;;;;11.41;82.68;99103.75;7363545;19;20494;-64
2023/12/27 03:26:28;;;;;;;;;;;;;;;11.43;82.23;99080.97;7367289;19;19922;-64
2023/12/27 03:28:53;;;;;;;;;;;;;;;11.45;82.31;99073.88;7364801;19;19932;-64
2023/12/27 03:31:18;;;;;;;;;;;;;;;11.49;82.41;99064.97;7364031;19;20002;-64
2023/12/27 03:33:43;;;;;;;;;;;;;;;11.52;82.18;99056.97;7365425;19;19915;-64
2023/12/27 03:36:08;;;;;;;;;;;;;;;11.54;82.60;99043.81;7365459;19;19922;-64
2023/12/27 03:38:34;;;;;;;;;;;;;;;11.56;82.46;99037.59;7364192;19;19919;-64
2023/12/27 03:41:00;;;;;;;;;;;;;;;11.59;82.57;99008.66;7364873;19;20632;-63
2023/12/27 03:43:25;;;;;;;;;;;;;;;11.61;82.46;98993.75;7363422;19;19979;-63
2023/12/27 03:45:54;;;;;;;;;;;;;;;11.63;82.57;98994.47;7357100;19;20023;-63
2023/12/27 03:48:19;;;;;;;;;;;;;;;11.67;82.24;98975.09;7361691;19;19937;-63
2023/12/27 03:50:44;;;;;;;;;;;;;;;11.69;82.52;98975.84;7368042;19;20633;-64
2023/12/27 03:53:10;;;;;;;;;;;;;;;11.72;82.35;98971.41;7363658;19;20332;-63
2023/12/27 03:55:35;;;;;;;;;;;;;;;11.75;82.25;98972.03;7365137;19;20329;-63
2023/12/27 03:58:01;;;;;;;;;;;;;;;11.76;82.25;98963.28;7367878;19;20375;-64
2023/12/27 04:00:26;;;;;;;;;;;;;;;11.80;82.23;98963.94;7364986;19;19922;-63
2023/12/27 04:02:51;;;;;;;;;;;;;;;11.81;82.44;98942.97;7365920;19;19935;-63
2023/12/27 04:05:17;;;;;;;;;;;;;;;11.84;82.53;98928.88;7362765;19;19984;-64
2023/12/27 04:07:42;;;;;;;;;;;;;;;11.86;82.57;98932.25;7364099;19;19918;-63
2023/12/27 04:10:07;;;;;;;;;;;;;;;11.87;82.61;98913.88;7367964;19;20255;-63
2023/12/27 04:12:32;;;;;;;;;;;;;;;11.85;82.22;98914.88;7354696;19;19919;-63
2023/12/27 04:14:58;;;;;;;;;;;;;;;11.90;82.27;98908.44;7364477;19;19948;-63
2023/12/27 04:17:24;;;;;;;;;;;;;;;11.92;82.31;98911.00;7355292;19;19943;-64
2023/12/27 04:19:49;;;;;;;;;;;;;;;11.93;82.30;98908.28;7348881;19;20647;-63
2023/12/27 04:22:14;;;;;;;;;;;;;;;11.95;82.30;98895.13;7364950;19;19923;-63
2023/12/27 04:24:40;;;;;;;;;;;;;;;11.95;82.55;98890.72;7363412;19;19925;-62
2023/12/27 04:27:05;;;;;;;;;;;;;;;11.97;82.26;98882.81;7363082;19;20398;-64
2023/12/27 04:29:30;;;;;;;;;;;;;;;11.98;82.47;98863.56;7362487;19;19911;-64
2023/12/27 04:31:55;;;;;;;;;;;;;;;11.99;82.28;98854.78;7357212;19;20458;-62
2023/12/27 04:34:20;;;;;;;;;;;;;;;12.01;82.54;98846.81;7364540;19;19978;-63
2023/12/27 04:36:46;;;;;;;;;;;;;;;12.01;82.24;98841.59;7364209;19;19923;-64
2023/12/27 04:39:11;;;;;;;;;;;;;;;12.03;82.76;98832.75;7366204;19;19919;-63
2023/12/27 04:41:36;;;;;;;;;;;;;;;12.03;82.48;98824.91;7360622;19;20366;-64
2023/12/27 04:44:01;;;;;;;;;;;;;;;12.04;82.28;98829.19;7366043;19;20365;-63
2023/12/27 04:46:27;;;;;;;;;;;;;;;12.06;82.47;98826.47;7364944;19;19915;-63
2023/12/27 04:48:52;;;;;;;;;;;;;;;12.07;82.83;98815.94;7364069;19;19923;-63
2023/12/27 04:51:17;;;;;;;;;;;;;;;12.07;82.31;98797.63;7360677;19;21120;-64
2023/12/27 04:53:43;;;;;;;;;;;;;;;12.09;82.27;98784.44;7364087;19;20267;-63
2023/12/27 04:56:08;;;;;;;;;;;;;;;12.09;82.52;98769.59;7362291;19;19919;-63
2023/12/27 04:58:35;;;;;;;;;;;;;;;12.10;82.51;98750.34;7366204;19;19926;-63
2023/12/27 05:01:04;;;;;;;;;;;;;;;12.11;82.57;98748.56;7364544;19;19989;-64
2023/12/27 05:03:30;;;;;;;;;;;;;;;12.11;82.31;98738.09;7364811;19;19919;-64
2023/12/27 05:05:55;;;;;;;;;;;;;;;12.12;82.67;98719.69;7364090;19;19947;-64
2023/12/27 05:08:20;;;;;;;;;;;;;;;12.13;82.27;98726.63;7363362;19;19923;-63
2023/12/27 05:10:46;;;;;;;;;;;;;;;12.14;82.42;98702.13;7364624;19;19915;-64
2023/12/27 05:13:11;;;;;;;;;;;;;;;12.14;82.41;98699.50;7356479;19;19954;-63
2023/12/27 05:15:36;;;;;;;;;;;;;;;12.15;82.42;98682.03;7361450;19;19910;-63
2023/12/27 05:18:02;;;;;;;;;;;;;;;12.14;82.40;98675.97;7367819;19;20661;-63
2023/12/27 05:20:27;;;;;;;;;;;;;;;12.16;82.34;98657.53;7367566;19;20030;-63
2023/12/27 05:22:52;;;;;;;;;;;;;;;12.16;82.89;98662.78;7365180;19;20376;-63
2023/12/27 05:25:17;;;;;;;;;;;;;;;12.17;82.74;98641.78;7362140;19;19919;-64
2023/12/27 05:27:43;;;;;;;;;;;;;;;12.17;82.48;98643.53;7364802;19;19923;-63
2023/12/27 05:30:09;;;;;;;;;;;;;;;12.17;82.69;98626.06;7362232;19;19943;-63
2023/12/27 05:32:34;;;;;;;;;;;;;;;12.19;82.92;98637.25;7369848;19;20359;-63
2023/12/27 05:34:59;;;;;;;;;;;;;;;12.20;82.62;98627.63;7361459;19;19922;-63
2023/12/27 05:37:25;;;;;;;;;;;;;;;12.19;82.75;98642.50;7363776;19;20015;-64
2023/12/27 05:39:50;;;;;;;;;;;;;;;12.20;82.79;98618.00;7361137;19;19919;-63
2023/12/27 05:42:16;;;;;;;;;;;;;;;12.22;82.83;98606.63;7365544;19;19915;-64
2023/12/27 05:44:41;;;;;;;;;;;;;;;12.22;82.98;98588.31;7364870;19;20264;-64
2023/12/27 05:47:07;;;;;;;;;;;;;;;12.22;82.58;98588.31;7367965;19;19918;-63
2023/12/27 05:49:33;;;;;;;;;;;;;;;12.22;82.97;98588.31;7362971;19;19919;-64
2023/12/27 05:51:59;;;;;;;;;;;;;;;12.23;82.96;98569.06;7364837;19;19923;-63
2023/12/27 05:54:26;;;;;;;;;;;;;;;12.24;82.67;98544.56;7356580;19;20670;-63
2023/12/27 05:56:51;;;;;;;;;;;;;;;12.25;83.04;98541.84;7363434;19;20387;-64
2023/12/27 05:59:17;;;;;;;;;;;;;;;12.25;83.02;98546.22;7363657;19;19933;-63
2023/12/27 06:01:47;;;;;;;;;;;;;;;12.26;82.82;98521.75;7330825;19;19907;-64
2023/12/27 06:04:14;;;;;;;;;;;;;;;12.27;82.94;98512.97;7364365;19;19926;-64
2023/12/27 06:06:39;;;;;;;;;;;;;;;12.28;82.65;98506.78;7361993;19;19919;-64
2023/12/27 06:09:04;;;;;;;;;;;;;;;12.28;83.00;98488.47;7363031;19;19925;-64
2023/12/27 06:11:30;;;;;;;;;;;;;;;12.29;82.81;98474.44;7370657;19;19922;-64
2023/12/27 06:13:55;;;;;;;;;;;;;;;12.31;82.77;98467.31;7363194;19;20352;-63
2023/12/27 06:16:20;;;;;;;;;;;;;;;12.31;82.74;98462.94;7372462;19;19987;-64
2023/12/27 06:18:45;;;;;;;;;;;;;;;12.32;83.02;98463.78;7369094;19;19919;-63
2023/12/27 06:21:11;;;;;;;;;;;;;;;12.33;83.33;98455.00;7370395;19;19911;-64
2023/12/27 06:23:36;;;;;;;;;;;;;;;12.34;83.00;98452.28;7367558;19;21296;-64
2023/12/27 06:26:01;;;;;;;;;;;;;;;12.36;83.31;98452.16;7370150;19;19935;-64
2023/12/27 06:28:26;;;;;;;;;;;;;;;12.39;82.91;98439.72;7368734;19;20613;-64
2023/12/27 06:30:52;;;;;;;;;;;;;;;12.40;82.89;98449.25;7365803;19;19932;-64
2023/12/27 06:33:17;;;;;;;;;;;;;;;12.41;83.09;98429.13;7370066;19;20378;-64
2023/12/27 06:35:42;;;;;;;;;;;;;;;12.43;83.01;98437.75;7378488;19;19974;-64
2023/12/27 06:38:08;;;;;;;;;;;;;;;12.45;83.39;98412.28;7370605;19;19918;-64
2023/12/27 06:40:33;;;;;;;;;;;;;;;12.46;83.15;98408.72;7367544;19;20378;-63
2023/12/27 06:42:58;;;;;;;;;;;;;;;12.46;83.04;98412.19;7372490;19;19930;-64
2023/12/27 06:45:24;;;;;;;;;;;;;;;12.49;83.19;98405.09;7369819;19;19915;-64
2023/12/27 06:47:49;;;;;;;;;;;;;;;12.51;83.01;98393.56;7371289;19;19925;-64
2023/12/27 06:50:14;;;;;;;;;;;;;;;12.52;83.43;98392.63;7367429;19;19974;-65
2023/12/27 06:52:40;;;;;;;;;;;;;;;12.53;83.38;98394.31;7364168;19;19924;-64
2023/12/27 06:55:07;;;;;;;;;;;;;;;12.56;83.53;98396.69;7368846;19;19950;-65
2023/12/27 06:57:32;;;;;;;;;;;;;;;12.59;83.24;98379.97;7370020;19;19919;-65
2023/12/27 06:59:57;;;;;;;;;;;;;;;12.63;83.66;98374.41;7363355;19;20045;-64
2023/12/27 07:02:23;;;;;;;;;;;;;;;12.70;83.89;98369.59;7367468;19;19921;-65
2023/12/27 07:04:48;;;;;;;;;;;;;;;12.79;84.22;98355.03;7365512;19;19926;-65
2023/12/27 07:07:13;;;;;;;;;;;;;;;12.86;84.25;98362.34;7366682;19;19938;-65
2023/12/27 07:09:39;;;;;;;;;;;;;;;12.85;84.19;98331.03;7366200;19;19996;-64
2023/12/27 07:12:04;;;;;;;;;;;;;;;13.03;84.49;98345.47;7369829;19;19973;-64
2023/12/27 07:14:30;;;;;;;;;;;;;;;13.11;83.99;98339.66;7367063;19;19926;-64
2023/12/27 07:16:55;;;;;;;;;;;;;;;13.19;84.39;98334.72;7371838;19;20269;-64
2023/12/27 07:19:20;;;;;;;;;;;;;;;13.27;84.27;98318.47;7363630;19;19930;-65
2023/12/27 07:21:46;;;;;;;;;;;;;;;13.31;83.84;98312.06;7366700;19;19915;-65
2023/12/27 07:24:11;;;;;;;;;;;;;;;13.37;83.99;98295.91;7369076;19;20442;-64
2023/12/27 07:26:36;;;;;;;;;;;;;;;13.41;83.98;98305.22;7369686;19;20784;-64
2023/12/27 07:29:02;;;;;;;;;;;;;;;13.46;83.52;98290.81;7367536;19;19930;-64
2023/12/27 07:31:27;;;;;;;;;;;;;;;13.50;83.44;98286.19;7367088;19;19918;-64
2023/12/27 07:33:52;;;;;;;;;;;;;;;13.55;83.25;98289.31;7366882;19;19926;-65
2023/12/27 07:36:18;;;;;;;;;;;;;;;13.57;83.12;98292.66;7366253;19;19922;-64
2023/12/27 07:38:43;;;;;;;;;;;;;;;13.60;83.12;98281.94;7365931;19;19919;-64
2023/12/27 07:41:08;;;;;;;;;;;;;;;13.63;82.93;98273.84;7375556;19;19949;-65
2023/12/27 07:43:35;;;;;;;;;;;;;;;13.65;82.99;98276.38;7364103;19;20729;-65
2023/12/27 07:46:01;;;;;;;;;;;;;;;13.68;82.97;98268.25;7364338;19;19919;-64
2023/12/27 07:48:26;;;;;;;;;;;;;;;13.70;83.17;98288.19;7362812;19;19918;-64
2023/12/27 07:50:52;;;;;;;;;;;;;;;13.75;83.16;98257.22;7369077;19;19925;-65
2023/12/27 07:53:17;;;;;;;;;;;;;;;13.79;82.90;98244.72;7371599;19;19948;-64
2023/12/27 07:55:42;;;;;;;;;;;;;;;13.83;82.87;98250.53;7365235;19;19919;-65
2023/12/27 07:58:08;;;;;;;;;;;;;;;13.87;83.16;98246.75;7367378;19;19914;-65
2023/12/27 08:00:33;;;;;;;;;;;;;;;13.89;83.03;98234.34;7367300;19;19926;-64
2023/12/27 08:02:58;;;;;;;;;;;;;;;13.92;82.91;98234.94;7366141;19;19958;-65
2023/12/27 08:05:24;;;;;;;;;;;;;;;13.94;82.96;98208.63;7364072;19;19919;-65
2023/12/27 08:07:49;;;;;;;;;;;;;;;13.96;82.56;98223.28;7361819;19;19921;-65
2023/12/27 08:10:14;;;;;;;;;;;;;;;13.99;82.59;98214.34;7365367;19;20325;-64
2023/12/27 08:12:40;;;;;;;;;;;;;;;14.03;82.87;98213.13;7364430;19;19926;-65
2023/12/27 08:15:06;;;;;;;;;;;;;;;14.05;82.81;98213.88;7335360;19;20320;-64
2023/12/27 08:17:32;;;;;;;;;;;;;;;14.09;82.53;98183.81;7366979;19;20319;-64
2023/12/27 08:19:57;;;;;;;;;;;;;;;14.12;82.64;98180.13;7361777;19;19998;-64
2023/12/27 08:22:22;;;;;;;;;;;;;;;14.16;82.26;98185.00;7364144;19;20017;-65
2023/12/27 08:24:48;;;;;;;;;;;;;;;14.19;82.43;98205.78;7353376;19;19928;-65
2023/12/27 08:27:13;;;;;;;;;;;;;;;14.22;82.18;98173.19;7372845;19;19922;-65
2023/12/27 08:29:38;;;;;;;;;;;;;;;14.25;81.97;98204.47;7364150;19;21099;-64
2023/12/27 08:32:04;;;;;;;;;;;;;;;14.26;82.27;98185.13;7363744;19;19930;-64
2023/12/27 08:34:29;;;;;;;;;;;;;;;14.27;82.18;98182.38;7362718;19;19922;-65
2023/12/27 08:36:55;;;;;;;;;;;;;;;14.29;82.33;98190.13;7362926;19;19919;-64
2023/12/27 08:39:20;;;;;;;;;;;;;;;14.31;82.12;98182.16;7358840;19;19926;-64
2023/12/27 08:41:45;;;;;;;;;;;;;;;14.31;81.71;98182.16;7363745;19;19950;-65
2023/12/27 08:44:12;;;;;;;;;;;;;;;14.32;82.05;98189.91;7356814;19;19959;-64
2023/12/27 08:46:38;;;;;;;;;;;;;;;14.33;82.21;98169.72;7359815;19;19921;-64
2023/12/27 08:49:04;;;;;;;;;;;;;;;14.34;81.86;98166.13;7364302;19;20388;-65
2023/12/27 08:51:29;;;;;;;;;;;;;;;14.34;81.89;98166.13;7364158;19;19936;-64
2023/12/27 08:53:54;;;;;;;;;;;;;;;14.35;81.86;98165.22;7363471;19;19925;-65
2023/12/27 08:56:19;;;;;;;;;;;;;;;14.34;81.99;98150.38;7363198;19;19919;-65
2023/12/27 08:58:45;;;;;;;;;;;;;;;14.33;82.04;98148.72;7357074;19;19919;-65
2023/12/27 09:01:10;;;;;;;;;;;;;;;14.33;81.42;98122.47;7360846;19;20252;-65
2023/12/27 09:03:35;;;;;;;;;;;;;;;14.32;81.62;98132.16;7359381;19;19919;-64
2023/12/27 09:06:01;;;;;;;;;;;;;;;14.32;81.86;98121.63;7362858;19;20352;-64
2023/12/27 09:08:26;;;;;;;;;;;;;;;14.31;81.66;98125.22;7362102;19;19914;-65
2023/12/27 09:10:51;;;;;;;;;;;;;;;14.31;81.73;98103.41;7362716;19;20722;-65
2023/12/27 09:13:16;;;;;;;;;;;;;;;14.30;81.77;98113.06;7366836;19;19942;-64
2023/12/27 09:15:42;;;;;;;;;;;;;;;14.31;81.67;98119.16;7363866;19;19915;-65
2023/12/27 09:18:08;;;;;;;;;;;;;;;14.30;81.66;98112.22;7361953;19;20621;-65
2023/12/27 09:20:34;;;;;;;;;;;;;;;14.31;81.98;98125.22;7359879;19;19922;-64
2023/12/27 09:23:00;;;;;;;;;;;;;;;14.30;81.64;98130.59;7362702;19;19961;-65
2023/12/27 09:25:25;;;;;;;;;;;;;;;14.31;81.58;98125.22;7360644;19;19925;-65
2023/12/27 09:27:50;;;;;;;;;;;;;;;14.32;81.94;98168.06;7355384;19;19930;-64
2023/12/27 09:30:15;;;;;;;;;;;;;;;14.32;81.78;98205.66;7357453;19;19915;-65
2023/12/27 09:32:43;;;;;;;;;;;;;;;14.30;81.13;98212.00;7365687;19;19975;-64
2023/12/27 09:35:08;;;;;;;;;;;;;;;14.23;80.62;98190.59;7361883;19;19919;-64
2023/12/27 09:37:35;;;;;;;;;;;;;;;14.11;80.25;98216.03;7365291;19;19922;-64
2023/12/27 09:40:00;;;;;;;;;;;;;;;13.95;79.67;98211.13;7328135;19;19946;-64
2023/12/27 09:42:25;;;;;;;;;;;;;;;13.81;79.55;98215.72;7362080;19;19919;-65
2023/12/27 09:44:51;;;;;;;;;;;;;;;13.64;80.05;98220.47;7370570;19;20458;-64
2023/12/27 09:47:17;;;;;;;;;;;;;;;13.51;80.24;98209.22;7367976;19;20006;-65
2023/12/27 09:49:42;;;;;;;;;;;;;;;13.38;79.72;98205.81;7367978;19;19923;-64
2023/12/27 09:52:08;;;;;;;;;;;;;;;13.26;79.86;98209.34;7369763;19;19922;-65
2023/12/27 09:54:33;;;;;;;;;;;;;;;13.14;80.15;98211.91;7362666;19;20002;-64
2023/12/27 09:56:59;;;;;;;;;;;;;;;13.05;80.39;98217.81;7369004;19;19919;-65
2023/12/27 09:59:27;;;;;;;;;;;;;;;12.97;80.77;98222.75;7362264;19;19915;-65
2023/12/27 10:01:54;;;;;;;;;;;;;;;12.87;80.64;98216.50;7366643;19;19926;-65
2023/12/27 10:04:19;;;;;;;;;;;;;;;12.84;81.04;98214.13;7366989;19;19945;-65
2023/12/27 10:06:46;;;;;;;;;;;;;;;12.79;81.24;98216.22;7370021;19;20320;-65
2023/12/27 10:09:11;;;;;;;;;;;;;;;12.72;81.57;98216.66;7366861;19;19921;-65
2023/12/27 10:11:41;;;;;;;;;;;;;;;12.69;81.51;98222.13;7363084;19;19919;-65
2023/12/27 10:14:10;;;;;;;;;;;;;;;12.66;81.89;98226.72;7357665;19;19953;-64
2023/12/27 10:16:36;;;;;;;;;;;;;;;12.62;81.67;98223.50;7368710;19;19926;-65
2023/12/27 10:19:01;;;;;;;;;;;;;;;12.59;81.83;98226.31;7368430;19;20255;-65
2023/12/27 10:21:27;;;;;;;;;;;;;;;12.55;81.71;98224.88;7367140;19;19918;-64
2023/12/27 10:23:53;;;;;;;;;;;;;;;12.53;81.75;98226.75;7368086;19;19919;-64
2023/12/27 10:26:19;;;;;;;;;;;;;;;12.51;81.79;98233.88;7365529;19;19930;-65
2023/12/27 10:28:44;;;;;;;;;;;;;;;12.50;81.96;98231.38;7366175;19;19982;-65
2023/12/27 10:31:10;;;;;;;;;;;;;;;12.46;82.13;98231.56;7365582;19;20470;-65
2023/12/27 10:33:39;;;;;;;;;;;;;;;12.45;82.22;98234.31;7367193;19;19940;-65
2023/12/27 10:36:05;;;;;;;;;;;;;;;12.45;81.84;98242.16;7366277;19;19956;-65
2023/12/27 10:38:30;;;;;;;;;;;;;;;12.44;82.17;98253.56;7366785;19;19919;-64
2023/12/27 10:40:55;;;;;;;;;;;;;;;12.43;82.12;98236.19;7368201;19;19919;-64
2023/12/27 10:43:24;;;;;;;;;;;;;;;12.42;82.13;98239.78;7364112;19;19951;-64
2023/12/27 10:45:49;;;;;;;;;;;;;;;12.40;82.58;98237.25;7365269;19;19938;-65
2023/12/27 10:48:15;;;;;;;;;;;;;;;12.40;82.33;98231.16;7373424;19;20463;-64
2023/12/27 10:50:41;;;;;;;;;;;;;;;12.40;82.64;98231.16;7370118;19;19918;-65
2023/12/27 10:53:06;;;;;;;;;;;;;;;12.39;82.54;98234.72;7367946;19;20042;-65
2023/12/27 10:55:35;;;;;;;;;;;;;;;12.37;82.16;98221.75;7364676;19;19915;-65
2023/12/27 10:58:02;;;;;;;;;;;;;;;12.37;82.24;98226.16;7369052;19;20786;-64
2023/12/27 11:00:28;;;;;;;;;;;;;;;12.36;82.67;98227.09;7366961;19;19923;-65
2023/12/27 11:02:53;;;;;;;;;;;;;;;12.34;82.29;98227.19;7370305;19;20311;-65
2023/12/27 11:05:21;;;;;;;;;;;;;;;12.34;82.47;98221.13;7365575;19;19919;-64
2023/12/27 11:07:46;;;;;;;;;;;;;;;12.34;82.74;98236.84;7368252;19;19923;-65
2023/12/27 11:10:14;;;;;;;;;;;;;;;12.34;82.43;98226.38;7368497;19;20703;-65
2023/12/27 11:12:42;;;;;;;;;;;;;;;12.35;82.62;98222.81;7364813;19;20081;-64
2023/12/27 11:15:08;;;;;;;;;;;;;;;12.35;82.89;98223.63;7369032;19;20356;-65
2023/12/27 11:17:34;;;;;;;;;;;;;;;12.35;82.90;98222.81;7360241;19;19919;-65
2023/12/27 11:19:59;;;;;;;;;;;;;;;12.35;82.70;98221.00;7368727;19;19926;-65
2023/12/27 11:22:24;;;;;;;;;;;;;;;12.37;82.71;98231.41;7360953;19;19935;-64
2023/12/27 11:24:50;;;;;;;;;;;;;;;12.36;82.93;98220.06;7365310;19;20724;-65
2023/12/27 11:27:19;;;;;;;;;;;;;;;12.38;82.63;98225.22;7366881;19;19935;-64
2023/12/27 11:29:45;;;;;;;;;;;;;;;12.36;82.48;98220.06;7363511;19;19945;-64
2023/12/27 11:32:10;;;;;;;;;;;;;;;12.38;82.57;98219.97;7364030;19;19911;-65
2023/12/27 11:34:35;;;;;;;;;;;;;;;12.37;82.95;98215.69;7338173;19;19934;-65
2023/12/27 11:37:01;;;;;;;;;;;;;;;12.39;83.00;98211.19;7357390;19;20741;-64
2023/12/27 11:39:29;;;;;;;;;;;;;;;12.39;82.56;98214.63;7368861;19;19933;-64
2023/12/27 11:41:54;;;;;;;;;;;;;;;12.39;82.77;98224.25;7360591;19;19910;-65
2023/12/27 11:44:20;;;;;;;;;;;;;;;12.40;82.79;98225.94;7375476;19;19926;-64
2023/12/27 11:46:45;;;;;;;;;;;;;;;12.41;82.83;98222.38;7368278;19;20339;-65
2023/12/27 11:49:31;;;;;;;;;;;;;;;12.43;82.67;98223.13;7371370;19;19944;-64
2023/12/27 11:51:56;;;;;;;;;;;;;;;12.44;83.01;98216.94;7361870;19;20381;-64
2023/12/27 11:54:22;;;;;;;;;;;;;;;12.46;82.81;98209.78;7367171;19;19926;-65
2023/12/27 11:56:47;;;;;;;;;;;;;;;12.46;82.89;98209.78;7372676;19;20268;-65
2023/12/27 11:59:12;;;;;;;;;;;;;;;12.47;83.08;98208.88;7368658;19;19926;-64
2023/12/27 12:01:40;;;;;;;;;;;;;;;12.48;82.79;98207.94;7360969;19;19958;-64
2023/12/27 12:04:24;;;;;;;;;;;;;;;12.48;83.20;98197.47;7361652;19;20486;-65
2023/12/27 12:07:07;;;;;;;;;;;;;;;12.49;83.11;98199.13;7366689;19;20351;-64
2023/12/27 12:09:50;;;;;;;;;;;;;;;12.50;82.75;98187.69;7366663;19;19926;-64
2023/12/27 12:12:17;;;;;;;;;;;;;;;12.50;82.82;98190.31;7362151;19;21770;-66
2023/12/27 12:14:42;;;;;;;;;;;;;;;12.50;83.04;98187.69;7366213;19;19974;-65
2023/12/27 12:17:08;;;;;;;;;;;;;;;12.51;82.96;98176.28;7364012;19;19978;-64
2023/12/27 12:19:36;;;;;;;;;;;;;;;12.52;82.81;98172.75;7367752;19;19926;-65
2023/12/27 12:22:02;;;;;;;;;;;;;;;12.52;82.83;98164.88;7362143;19;20998;-65
2023/12/27 12:24:27;;;;;;;;;;;;;;;12.53;82.81;98166.56;7362795;19;19927;-65
2023/12/27 12:26:54;;;;;;;;;;;;;;;12.53;82.67;98161.31;7357437;19;19922;-65
2023/12/27 12:29:29;;;;;;;;;;;;;;;12.52;82.98;98162.28;7367971;19;19924;-65
2023/12/27 12:31:54;;;;;;;;;;;;;;;12.54;83.06;98157.75;7365835;19;19923;-64
2023/12/27 12:34:22;;;;;;;;;;;;;;;12.54;83.05;98165.59;7364803;19;19960;-66
2023/12/27 12:36:48;;;;;;;;;;;;;;;12.52;83.07;98146.56;7367137;19;19922;-64
2023/12/27 12:39:16;;;;;;;;;;;;;;;12.52;83.08;98136.09;7364435;19;20572;-65